createdAt,value
2018-01-26T00:00:09.329Z,20.30
2018-01-26T00:01:12.618Z,18.65
2018-01-26T00:02:15.100Z,18.70
2018-01-26T00:03:17.597Z,19.20
2018-01-26T00:04:20.089Z,19.58
2018-01-26T00:05:23.341Z,19.65
2018-01-26T00:06:25.832Z,18.33
2018-01-26T00:07:28.340Z,18.83
2018-01-26T00:08:30.808Z,19.40
2018-01-26T00:09:34.073Z,19.75
2018-01-26T00:10:36.586Z,21.00
2018-01-26T00:11:39.821Z,20.30
2018-01-26T00:12:42.338Z,19.77
2018-01-26T00:13:45.591Z,20.00
2018-01-26T00:14:48.142Z,20.73
2018-01-26T00:15:50.614Z,21.23
2018-01-26T00:16:53.119Z,20.40
2018-01-26T00:17:55.619Z,20.92
2018-01-26T00:18:58.100Z,21.15
2018-01-26T00:20:00.580Z,20.50
2018-01-26T00:21:03.089Z,20.37
2018-01-26T00:22:05.581Z,19.92
2018-01-26T00:23:08.060Z,22.13
2018-01-26T00:24:10.544Z,21.58
2018-01-26T00:25:13.019Z,20.50
2018-01-26T00:26:15.504Z,20.60
2018-01-26T00:27:17.998Z,21.27
2018-01-26T00:28:20.485Z,21.98
2018-01-26T00:29:22.960Z,21.62
2018-01-26T00:30:26.207Z,22.70
2018-01-26T00:31:28.698Z,21.25
2018-01-26T00:32:31.190Z,24.10
2018-01-26T00:33:34.289Z,22.30
2018-01-26T00:34:36.768Z,23.50
2018-01-26T00:35:39.253Z,23.00
2018-01-26T00:36:42.571Z,23.00
2018-01-26T00:37:45.815Z,23.17
2018-01-26T00:38:48.338Z,22.92
2018-01-26T00:39:50.818Z,23.00
2018-01-26T00:40:53.299Z,22.25
2018-01-26T00:41:55.786Z,22.70
2018-01-26T00:42:58.353Z,23.17
2018-01-26T00:44:00.836Z,23.30
2018-01-26T00:45:04.174Z,24.92
2018-01-26T00:46:06.696Z,22.98
2018-01-26T00:47:11.012Z,22.83
2018-01-26T00:48:13.506Z,22.37
2018-01-26T00:49:16.023Z,23.40
2018-01-26T00:50:18.491Z,23.35
2018-01-26T00:51:20.990Z,23.70
2018-01-26T00:52:24.277Z,22.62
2018-01-26T00:53:26.720Z,22.98
2018-01-26T00:54:29.219Z,23.02
2018-01-26T00:55:31.688Z,23.95
2018-01-26T00:56:35.031Z,24.17
2018-01-26T00:57:37.521Z,23.65
2018-01-26T00:58:40.004Z,23.50
2018-01-26T00:59:42.502Z,23.90
2018-01-26T01:00:45.900Z,24.92
2018-01-26T01:01:48.412Z,23.52
2018-01-26T01:02:51.780Z,24.85
2018-01-26T01:03:54.270Z,24.37
2018-01-26T01:04:57.544Z,25.90
2018-01-26T01:06:00.033Z,25.08
2018-01-26T01:07:02.516Z,25.60
2018-01-26T01:08:05.803Z,23.55
2018-01-26T01:09:08.293Z,23.90
2018-01-26T01:10:11.572Z,24.58
2018-01-26T01:11:14.064Z,24.25
2018-01-26T01:12:17.363Z,24.15
2018-01-26T01:13:20.628Z,23.80
2018-01-26T01:14:23.104Z,24.35
2018-01-26T01:15:25.605Z,26.05
2018-01-26T01:16:28.877Z,24.70
2018-01-26T01:17:31.364Z,23.52
2018-01-26T01:18:34.613Z,25.88
2018-01-26T01:19:37.083Z,25.65
2018-01-26T01:20:39.569Z,24.70
2018-01-26T01:21:42.075Z,25.25
2018-01-26T01:22:45.408Z,26.23
2018-01-26T01:23:47.886Z,24.80
2018-01-26T01:24:50.388Z,25.95
2018-01-26T01:25:52.873Z,23.98
2018-01-26T01:26:55.380Z,26.42
2018-01-26T01:27:57.853Z,26.58
2018-01-26T01:29:00.346Z,27.17
2018-01-26T01:30:03.597Z,25.62
2018-01-26T01:31:06.080Z,24.80
2018-01-26T01:32:09.360Z,26.02
2018-01-26T01:33:11.902Z,25.92
2018-01-26T01:34:15.113Z,25.48
2018-01-26T01:35:17.604Z,26.23
2018-01-26T01:36:20.098Z,24.12
2018-01-26T01:37:22.587Z,24.30
2018-01-26T01:38:25.119Z,25.52
2018-01-26T01:39:27.595Z,23.98
2018-01-26T01:40:30.080Z,24.63
2018-01-26T01:41:32.577Z,24.27
2018-01-26T01:42:35.063Z,24.25
2018-01-26T01:43:37.531Z,25.58
2018-01-26T01:44:40.035Z,24.52
2018-01-26T01:45:42.509Z,24.30
2018-01-26T01:46:45.745Z,22.80
2018-01-26T01:47:48.315Z,23.08
2018-01-26T01:49:03.453Z,22.55
2018-01-26T01:50:06.697Z,23.20
2018-01-26T01:51:09.171Z,23.30
2018-01-26T01:52:11.658Z,23.65
2018-01-26T01:53:14.149Z,22.42
2018-01-26T01:54:16.627Z,22.13
2018-01-26T01:55:19.103Z,23.05
2018-01-26T01:56:21.584Z,24.35
2018-01-26T01:57:24.059Z,23.38
2018-01-26T01:58:26.581Z,21.87
2018-01-26T01:59:29.066Z,24.58
2018-01-26T02:00:31.546Z,23.02
2018-01-26T02:01:34.020Z,22.83
2018-01-26T02:02:36.518Z,21.58
2018-01-26T02:03:39.002Z,23.08
2018-01-26T02:04:41.489Z,23.77
2018-01-26T02:05:44.806Z,25.35
2018-01-26T02:06:48.094Z,20.90
2018-01-26T02:07:51.367Z,23.62
2018-01-26T02:08:54.196Z,21.80
2018-01-26T02:09:56.701Z,22.98
2018-01-26T02:10:59.201Z,25.65
2018-01-26T02:12:01.682Z,24.02
2018-01-26T02:13:04.166Z,23.00
2018-01-26T02:14:07.427Z,25.27
2018-01-26T02:15:10.645Z,23.40
2018-01-26T02:16:13.922Z,23.38
2018-01-26T02:17:16.430Z,25.62
2018-01-26T02:18:19.667Z,24.40
2018-01-26T02:19:22.169Z,24.35
2018-01-26T02:20:24.636Z,25.85
2018-01-26T02:21:27.141Z,26.60
2018-01-26T02:22:30.405Z,26.98
2018-01-26T02:23:32.880Z,26.20
2018-01-26T02:24:35.400Z,28.83
2018-01-26T02:25:37.919Z,26.50
2018-01-26T02:26:40.406Z,30.12
2018-01-26T02:27:43.716Z,28.15
2018-01-26T02:28:46.970Z,28.65
2018-01-26T02:29:49.452Z,28.20
2018-01-26T02:30:51.917Z,29.77
2018-01-26T02:31:54.395Z,29.12
2018-01-26T02:32:57.648Z,30.00
2018-01-26T02:34:00.125Z,30.10
2018-01-26T02:35:02.617Z,30.05
2018-01-26T02:36:05.092Z,31.05
2018-01-26T02:37:07.585Z,28.80
2018-01-26T02:38:10.835Z,29.45
2018-01-26T02:39:13.364Z,30.20
2018-01-26T02:40:16.682Z,29.98
2018-01-26T02:41:19.167Z,30.40
2018-01-26T02:42:21.630Z,30.88
2018-01-26T02:43:24.092Z,30.90
2018-01-26T02:44:26.571Z,31.65
2018-01-26T02:45:29.059Z,29.83
2018-01-26T02:46:31.539Z,29.95
2018-01-26T02:47:34.037Z,32.20
2018-01-26T02:48:36.524Z,30.52
2018-01-26T02:49:39.758Z,31.48
2018-01-26T02:50:42.967Z,29.75
2018-01-26T02:51:45.440Z,33.45
2018-01-26T02:52:47.922Z,32.42
2018-01-26T02:53:51.160Z,31.08
2018-01-26T02:54:53.643Z,30.37
2018-01-26T02:55:56.138Z,30.60
2018-01-26T02:56:58.626Z,32.15
2018-01-26T02:58:01.874Z,30.35
2018-01-26T02:59:04.350Z,31.20
2018-01-26T03:00:07.414Z,31.23
2018-01-26T03:01:09.917Z,29.15
2018-01-26T03:02:12.383Z,28.90
2018-01-26T03:03:14.865Z,29.30
2018-01-26T03:04:18.247Z,28.70
2018-01-26T03:05:20.727Z,27.35
2018-01-26T03:06:23.192Z,28.75
2018-01-26T03:07:25.726Z,26.80
2018-01-26T03:08:28.203Z,28.85
2018-01-26T03:09:30.674Z,29.00
2018-01-26T03:10:33.149Z,28.40
2018-01-26T03:11:35.639Z,28.33
2018-01-26T03:12:38.712Z,28.20
2018-01-26T03:13:41.190Z,27.90
2018-01-26T03:14:43.676Z,26.95
2018-01-26T03:15:46.775Z,27.15
2018-01-26T03:16:50.011Z,26.62
2018-01-26T03:17:52.494Z,24.40
2018-01-26T03:18:54.988Z,27.65
2018-01-26T03:19:57.498Z,25.45
2018-01-26T03:20:59.978Z,25.90
2018-01-26T03:22:02.449Z,24.15
2018-01-26T03:23:04.934Z,25.10
2018-01-26T03:24:07.487Z,27.08
2018-01-26T03:25:10.788Z,26.83
2018-01-26T03:26:13.255Z,26.75
2018-01-26T03:27:15.729Z,28.35
2018-01-26T03:28:18.221Z,26.42
2018-01-26T03:29:21.271Z,25.70
2018-01-26T03:30:23.742Z,24.87
2018-01-26T03:31:26.228Z,25.85
2018-01-26T03:32:28.701Z,26.30
2018-01-26T03:33:31.188Z,25.45
2018-01-26T03:34:33.664Z,26.00
2018-01-26T03:35:36.135Z,23.50
2018-01-26T03:36:38.633Z,24.12
2018-01-26T03:37:41.874Z,24.25
2018-01-26T03:38:44.376Z,24.90
2018-01-26T03:39:47.386Z,24.25
2018-01-26T03:40:49.875Z,24.98
2018-01-26T03:41:52.352Z,24.35
2018-01-26T03:42:54.896Z,24.92
2018-01-26T03:43:57.397Z,23.60
2018-01-26T03:44:59.914Z,24.25
2018-01-26T03:46:03.325Z,25.00
2018-01-26T03:47:06.557Z,24.67
2018-01-26T03:48:09.162Z,26.90
2018-01-26T03:49:11.878Z,24.75
2018-01-26T03:50:14.439Z,24.58
2018-01-26T03:51:16.919Z,25.80
2018-01-26T03:52:19.428Z,25.00
2018-01-26T03:53:21.906Z,25.95
2018-01-26T03:54:24.384Z,25.27
2018-01-26T03:55:26.864Z,25.80
2018-01-26T03:56:30.104Z,24.02
2018-01-26T03:57:32.571Z,24.35
2018-01-26T03:58:35.032Z,26.42
2018-01-26T03:59:37.577Z,26.65
2018-01-26T04:00:40.818Z,23.40
2018-01-26T04:01:43.347Z,24.55
2018-01-26T04:02:45.920Z,24.98
2018-01-26T04:03:49.253Z,24.12
2018-01-26T04:04:51.740Z,24.33
2018-01-26T04:05:54.227Z,24.45
2018-01-26T04:06:58.287Z,25.48
2018-01-26T04:08:00.828Z,24.63
2018-01-26T04:09:03.339Z,24.30
2018-01-26T04:10:05.835Z,26.75
2018-01-26T04:11:08.310Z,26.23
2018-01-26T04:12:10.830Z,25.60
2018-01-26T04:13:13.321Z,25.73
2018-01-26T04:14:15.808Z,27.62
2018-01-26T04:15:18.284Z,27.55
2018-01-26T04:16:20.840Z,27.37
2018-01-26T04:17:23.315Z,28.65
2018-01-26T04:18:25.832Z,29.92
2018-01-26T04:19:28.316Z,29.08
2018-01-26T04:20:30.811Z,29.27
2018-01-26T04:21:33.285Z,28.73
2018-01-26T04:22:35.756Z,30.98
2018-01-26T04:23:38.253Z,30.23
2018-01-26T04:24:40.742Z,28.98
2018-01-26T04:25:44.818Z,30.73
2018-01-26T04:26:47.310Z,28.23
2018-01-26T04:27:50.558Z,29.63
2018-01-26T04:28:53.813Z,27.87
2018-01-26T04:29:56.295Z,31.50
2018-01-26T04:30:58.785Z,30.62
2018-01-26T04:32:01.261Z,31.05
2018-01-26T04:33:03.767Z,30.37
2018-01-26T04:34:07.015Z,29.83
2018-01-26T04:35:09.544Z,27.87
2018-01-26T04:36:12.786Z,28.83
2018-01-26T04:37:16.092Z,29.25
2018-01-26T04:38:18.576Z,28.75
2018-01-26T04:39:21.828Z,28.17
2018-01-26T04:40:24.294Z,29.08
2018-01-26T04:41:26.765Z,28.85
2018-01-26T04:42:29.254Z,28.67
2018-01-26T04:56:31.780Z,24.05
2018-01-26T04:57:34.271Z,23.62
2018-01-26T04:58:36.786Z,27.05
2018-01-26T04:59:40.025Z,26.95
2018-01-26T05:00:43.264Z,28.20
2018-01-26T05:01:45.742Z,24.60
2018-01-26T05:02:48.284Z,23.30
2018-01-26T05:03:51.535Z,27.83
2018-01-26T05:04:54.012Z,24.83
2018-01-26T05:05:56.501Z,26.10
2018-01-26T05:06:58.984Z,24.83
2018-01-26T05:08:01.456Z,25.55
2018-01-26T05:09:03.977Z,26.37
2018-01-26T05:10:07.213Z,26.42
2018-01-26T05:11:09.724Z,28.70
2018-01-26T05:12:12.970Z,26.48
2018-01-26T05:13:15.449Z,26.90
2018-01-26T05:14:17.957Z,26.05
2018-01-26T05:15:21.207Z,27.15
2018-01-26T05:16:23.679Z,25.55
2018-01-26T05:17:26.145Z,26.08
2018-01-26T05:18:28.634Z,25.37
2018-01-26T05:19:31.123Z,26.42
2018-01-26T05:20:34.375Z,25.27
2018-01-26T05:21:36.867Z,26.17
2018-01-26T05:22:39.343Z,25.33
2018-01-26T05:23:41.842Z,25.52
2018-01-26T05:24:44.309Z,26.30
2018-01-26T05:25:46.801Z,26.50
2018-01-26T05:26:49.353Z,24.92
2018-01-26T05:27:51.814Z,26.52
2018-01-26T05:28:55.067Z,24.05
2018-01-26T05:29:57.830Z,24.33
2018-01-26T05:31:00.356Z,25.88
2018-01-26T05:32:03.594Z,24.58
2018-01-26T05:33:06.077Z,25.40
2018-01-26T05:34:08.564Z,24.67
2018-01-26T05:35:11.860Z,24.42
2018-01-26T05:36:15.120Z,24.27
2018-01-26T05:37:17.602Z,23.52
2018-01-26T05:38:20.088Z,24.30
2018-01-26T05:39:23.332Z,24.50
2018-01-26T05:40:25.827Z,23.60
2018-01-26T05:41:28.330Z,24.83
2018-01-26T05:42:31.587Z,24.92
2018-01-26T05:43:34.071Z,23.50
2018-01-26T05:44:37.327Z,24.17
2018-01-26T05:45:39.818Z,24.87
2018-01-26T05:46:42.323Z,23.20
2018-01-26T05:47:44.904Z,24.83
2018-01-26T05:48:47.387Z,25.80
2018-01-26T05:49:49.873Z,25.50
2018-01-26T05:50:53.139Z,24.42
2018-01-26T05:51:55.629Z,25.20
2018-01-26T05:52:58.124Z,23.48
2018-01-26T05:54:00.616Z,22.13
2018-01-26T05:55:03.094Z,24.20
2018-01-26T05:56:05.574Z,24.05
2018-01-26T05:57:08.124Z,24.35
2018-01-26T05:58:10.710Z,24.30
2018-01-26T05:59:13.194Z,22.90
2018-01-26T06:00:15.688Z,24.30
2018-01-26T06:01:18.218Z,23.65
2018-01-26T06:02:20.773Z,23.98
2018-01-26T06:03:23.261Z,21.27
2018-01-26T06:04:26.652Z,22.25
2018-01-26T06:05:29.127Z,22.83
2018-01-26T06:06:32.375Z,22.77
2018-01-26T06:07:35.619Z,22.05
2018-01-26T06:08:38.727Z,25.15
2018-01-26T06:09:41.220Z,25.20
2018-01-26T06:10:44.471Z,23.05
2018-01-26T06:11:46.973Z,25.58
2018-01-26T06:12:50.237Z,23.87
2018-01-26T06:13:52.727Z,23.12
2018-01-26T06:14:55.977Z,22.45
2018-01-26T06:15:58.503Z,23.55
2018-01-26T06:17:01.763Z,23.85
2018-01-26T06:18:04.292Z,23.75
2018-01-26T06:19:06.764Z,23.52
2018-01-26T06:20:09.251Z,23.17
2018-01-26T06:21:12.503Z,21.80
2018-01-26T06:22:15.009Z,23.23
2018-01-26T06:23:17.506Z,23.80
2018-01-26T06:24:19.984Z,22.23
2018-01-26T06:25:22.465Z,22.92
2018-01-26T06:26:24.970Z,23.05
2018-01-26T06:27:28.179Z,22.92
2018-01-26T06:28:30.672Z,22.42
2018-01-26T06:29:33.139Z,21.87
2018-01-26T06:30:35.648Z,22.60
2018-01-26T06:31:38.892Z,23.10
2018-01-26T06:32:41.371Z,23.70
2018-01-26T06:33:43.869Z,22.35
2018-01-26T06:34:46.344Z,24.23
2018-01-26T06:35:49.591Z,24.75
2018-01-26T06:36:52.064Z,22.83
2018-01-26T06:37:55.434Z,22.10
2018-01-26T06:38:57.991Z,24.27
2018-01-26T06:40:00.495Z,23.73
2018-01-26T06:41:02.996Z,23.77
2018-01-26T06:42:06.245Z,23.40
2018-01-26T06:43:08.744Z,23.73
2018-01-26T06:44:11.403Z,24.00
2018-01-26T06:45:13.887Z,22.92
2018-01-26T06:46:16.367Z,23.85
2018-01-26T06:47:19.605Z,24.08
2018-01-26T06:48:22.087Z,23.70
2018-01-26T06:49:24.624Z,23.58
2018-01-26T06:50:27.097Z,23.27
2018-01-26T06:51:29.573Z,22.13
2018-01-26T06:52:32.056Z,25.17
2018-01-26T06:53:34.540Z,23.52
2018-01-26T06:54:37.122Z,23.45
2018-01-26T06:55:39.588Z,24.42
2018-01-26T06:56:42.102Z,23.35
2018-01-26T06:57:45.351Z,23.10
2018-01-26T06:58:49.338Z,21.70
2018-01-26T06:59:51.821Z,24.40
2018-01-26T07:00:54.297Z,21.83
2018-01-26T07:01:57.635Z,21.98
2018-01-26T07:03:00.447Z,20.67
2018-01-26T07:04:02.957Z,22.55
2018-01-26T07:05:05.468Z,22.02
2018-01-26T07:06:08.007Z,23.23
2018-01-26T07:07:11.347Z,21.80
2018-01-26T07:08:13.961Z,22.20
2018-01-26T07:09:16.441Z,22.50
2018-01-26T07:10:19.720Z,21.42
2018-01-26T07:11:22.212Z,22.17
2018-01-26T07:12:24.764Z,23.70
2018-01-26T07:13:27.255Z,21.80
2018-01-26T07:14:29.735Z,21.70
2018-01-26T07:15:32.228Z,21.90
2018-01-26T07:16:34.714Z,22.17
2018-01-26T07:17:37.187Z,21.98
2018-01-26T07:18:39.664Z,22.25
2018-01-26T07:19:42.142Z,19.87
2018-01-26T07:20:44.628Z,21.73
2018-01-26T07:21:47.887Z,23.20
2018-01-26T07:22:50.376Z,21.17
2018-01-26T07:23:52.865Z,19.12
2018-01-26T07:24:56.145Z,21.25
2018-01-26T07:25:58.654Z,20.55
2018-01-26T07:27:01.131Z,22.00
2018-01-26T07:28:03.652Z,19.62
2018-01-26T07:29:06.164Z,22.45
2018-01-26T07:30:08.669Z,21.35
2018-01-26T07:31:11.932Z,21.70
2018-01-26T07:32:14.515Z,21.52
2018-01-26T07:33:17.065Z,21.70
2018-01-26T07:34:19.546Z,21.48
2018-01-26T07:35:23.375Z,21.80
2018-01-26T07:36:25.872Z,22.70
2018-01-26T07:37:29.123Z,20.75
2018-01-26T07:38:31.616Z,20.35
2018-01-26T07:39:34.115Z,19.98
2018-01-26T07:40:37.391Z,19.17
2018-01-26T07:41:39.883Z,19.75
2018-01-26T07:42:42.389Z,19.67
2018-01-26T07:43:44.883Z,20.23
2018-01-26T07:44:47.416Z,20.58
2018-01-26T07:45:49.891Z,20.20
2018-01-26T07:46:52.382Z,20.40
2018-01-26T07:47:54.883Z,21.42
2018-01-26T07:48:57.361Z,19.20
2018-01-26T07:50:00.616Z,19.98
2018-01-26T07:51:03.093Z,21.85
2018-01-26T07:52:05.575Z,22.48
2018-01-26T07:53:08.085Z,19.37
2018-01-26T07:54:12.165Z,20.98
2018-01-26T07:55:15.423Z,21.98
2018-01-26T07:56:17.901Z,21.52
2018-01-26T07:57:20.382Z,20.80
2018-01-26T07:58:22.882Z,20.10
2018-01-26T07:59:25.360Z,20.62
2018-01-26T08:00:27.837Z,20.08
2018-01-26T08:01:30.328Z,21.20
2018-01-26T08:02:32.808Z,19.45
2018-01-26T08:03:35.301Z,20.67
2018-01-26T08:04:37.771Z,20.10
2018-01-26T08:05:40.262Z,20.35
2018-01-26T08:06:43.562Z,19.30
2018-01-26T08:07:46.847Z,18.73
2018-01-26T08:08:50.120Z,21.05
2018-01-26T08:09:52.585Z,20.08
2018-01-26T08:10:55.073Z,20.52
2018-01-26T08:11:58.312Z,20.83
2018-01-26T08:13:01.137Z,20.83
2018-01-26T08:14:03.643Z,20.95
2018-01-26T08:15:06.119Z,21.55
2018-01-26T08:16:08.608Z,18.10
2018-01-26T08:17:11.169Z,20.80
2018-01-26T08:18:14.727Z,21.35
2018-01-26T08:19:17.220Z,23.87
2018-01-26T08:20:19.787Z,21.87
2018-01-26T08:21:22.271Z,20.45
2018-01-26T08:22:24.895Z,21.65
2018-01-26T08:23:27.416Z,19.92
2018-01-26T08:24:30.671Z,20.23
2018-01-26T08:25:33.939Z,19.48
2018-01-26T08:26:36.415Z,18.58
2018-01-26T08:27:39.664Z,21.45
2018-01-26T08:28:42.155Z,20.50
2018-01-26T08:29:44.631Z,19.70
2018-01-26T08:30:47.112Z,17.87
2018-01-26T08:31:50.355Z,19.48
2018-01-26T08:32:52.876Z,20.50
2018-01-26T08:33:56.113Z,21.60
2018-01-26T08:34:58.612Z,19.77
2018-01-26T08:36:01.097Z,19.83
2018-01-26T08:37:03.591Z,20.45
2018-01-26T08:38:06.835Z,19.60
2018-01-26T08:39:09.442Z,20.95
2018-01-26T08:40:12.792Z,20.45
2018-01-26T08:54:15.326Z,16.10
2018-01-26T08:56:48.908Z,17.73
2018-01-26T08:57:51.604Z,19.90
2018-01-26T08:58:55.125Z,17.67
2018-01-26T08:59:57.618Z,20.77
2018-01-26T09:01:00.114Z,23.48
2018-01-26T09:02:02.607Z,22.37
2018-01-26T09:03:05.920Z,21.87
2018-01-26T09:04:08.493Z,23.50
2018-01-26T09:05:11.193Z,22.73
2018-01-26T09:06:13.695Z,23.25
2018-01-26T09:07:16.202Z,24.12
2018-01-26T09:08:20.112Z,23.75
2018-01-26T09:09:22.795Z,22.77
2018-01-26T09:10:25.326Z,23.02
2018-01-26T09:11:27.838Z,25.10
2018-01-26T09:12:30.378Z,23.23
2018-01-26T09:13:33.647Z,23.75
2018-01-26T09:14:36.141Z,24.85
2018-01-26T09:15:38.636Z,24.00
2018-01-26T09:16:41.919Z,24.35
2018-01-26T09:17:45.161Z,22.13
2018-01-26T09:18:48.421Z,24.33
2018-01-26T09:19:50.921Z,24.02
2018-01-26T09:20:53.530Z,24.12
2018-01-26T09:21:56.041Z,22.92
2018-01-26T09:22:58.563Z,22.98
2018-01-26T09:24:02.489Z,23.85
2018-01-26T09:25:05.037Z,21.77
2018-01-26T09:26:07.538Z,22.45
2018-01-26T09:27:10.131Z,21.10
2018-01-26T09:28:12.801Z,21.00
2018-01-26T09:29:15.430Z,21.80
2018-01-26T09:30:17.997Z,22.58
2018-01-26T09:31:21.275Z,22.58
2018-01-26T09:32:25.663Z,21.35
2018-01-26T09:33:28.239Z,20.55
2018-01-26T09:34:30.756Z,20.02
2018-01-26T09:35:33.281Z,20.10
2018-01-26T09:36:35.770Z,21.95
2018-01-26T09:37:39.049Z,20.25
2018-01-26T09:38:41.645Z,20.73
2018-01-26T09:39:44.131Z,20.15
2018-01-26T09:40:47.001Z,20.40
2018-01-26T09:41:49.567Z,20.33
2018-01-26T09:42:52.127Z,20.83
2018-01-26T09:43:54.590Z,21.45
2018-01-26T09:44:57.845Z,19.55
2018-01-26T09:46:00.345Z,18.42
2018-01-26T09:47:02.854Z,19.40
2018-01-26T09:48:05.354Z,20.10
2018-01-26T09:49:07.983Z,20.10
2018-01-26T09:50:11.386Z,19.42
2018-01-26T09:51:13.890Z,18.52
2018-01-26T09:52:16.399Z,17.65
2018-01-26T09:53:19.660Z,18.55
2018-01-26T09:54:22.167Z,17.83
2018-01-26T09:55:25.469Z,19.77
2018-01-26T09:56:28.034Z,19.62
2018-01-26T09:57:30.608Z,18.58
2018-01-26T09:58:33.091Z,19.10
2018-01-26T09:59:35.599Z,18.15
2018-01-26T10:00:38.108Z,18.37
2018-01-26T10:01:41.403Z,20.98
2018-01-26T10:02:43.975Z,19.30
2018-01-26T10:03:46.454Z,18.45
2018-01-26T10:04:48.968Z,19.02
2018-01-26T10:05:52.236Z,17.80
2018-01-26T10:06:54.719Z,20.48
2018-01-26T10:07:57.209Z,17.33
2018-01-26T10:09:00.532Z,18.05
2018-01-26T10:10:03.095Z,19.17
2018-01-26T10:11:06.362Z,20.60
2018-01-26T10:12:08.853Z,18.45
2018-01-26T10:13:12.157Z,17.10
2018-01-26T10:14:14.823Z,19.45
2018-01-26T10:15:18.078Z,17.98
2018-01-26T10:16:20.595Z,18.35
2018-01-26T10:17:23.106Z,19.70
2018-01-26T10:18:25.620Z,18.33
2018-01-26T10:19:28.934Z,19.27
2018-01-26T10:20:31.429Z,17.20
2018-01-26T10:21:33.929Z,18.67
2018-01-26T10:22:36.434Z,17.00
2018-01-26T10:23:38.936Z,17.77
2018-01-26T10:24:41.437Z,17.75
2018-01-26T10:25:44.036Z,17.15
2018-01-26T10:26:46.609Z,16.45
2018-01-26T10:27:49.108Z,16.75
2018-01-26T10:28:51.613Z,18.05
2018-01-26T10:29:54.127Z,17.52
2018-01-26T10:30:56.637Z,18.70
2018-01-26T10:31:59.173Z,17.52
2018-01-26T10:33:01.668Z,17.15
2018-01-26T10:34:04.177Z,17.08
2018-01-26T10:35:07.442Z,17.92
2018-01-26T10:36:10.103Z,17.27
2018-01-26T10:37:12.779Z,16.37
2018-01-26T10:38:15.268Z,18.15
2018-01-26T10:39:17.785Z,18.12
2018-01-26T10:40:20.301Z,15.95
2018-01-26T10:41:22.827Z,16.73
2018-01-26T10:42:25.354Z,17.58
2018-01-26T10:43:27.864Z,16.50
2018-01-26T10:44:30.391Z,17.35
2018-01-26T10:45:32.871Z,17.83
2018-01-26T10:46:35.369Z,17.20
2018-01-26T10:47:37.881Z,17.15
2018-01-26T10:48:40.384Z,15.95
2018-01-26T10:49:43.648Z,16.98
2018-01-26T10:50:46.143Z,17.83
2018-01-26T10:51:48.738Z,17.17
2018-01-26T10:52:51.253Z,17.05
2018-01-26T10:53:53.758Z,16.65
2018-01-26T10:54:56.266Z,17.92
2018-01-26T10:55:58.766Z,17.12
2018-01-26T10:57:01.263Z,17.50
2018-01-26T10:58:03.802Z,17.35
2018-01-26T10:59:06.291Z,17.75
2018-01-26T11:00:08.796Z,17.77
2018-01-26T11:01:11.357Z,18.75
2018-01-26T11:02:13.910Z,17.83
2018-01-26T11:03:17.236Z,21.25
2018-01-26T11:04:19.821Z,18.27
2018-01-26T11:05:22.310Z,18.62
2018-01-26T11:06:24.826Z,20.60
2018-01-26T11:07:27.346Z,20.15
2018-01-26T11:08:30.643Z,18.60
2018-01-26T11:09:33.128Z,19.90
2018-01-26T11:10:35.656Z,19.85
2018-01-26T11:11:38.371Z,20.90
2018-01-26T11:12:40.867Z,19.45
2018-01-26T11:13:43.366Z,19.80
2018-01-26T11:14:45.887Z,20.08
2018-01-26T11:15:48.441Z,19.45
2018-01-26T11:16:51.718Z,19.77
2018-01-26T11:17:54.983Z,23.60
2018-01-26T11:18:57.485Z,23.25
2018-01-26T11:20:00.815Z,22.00
2018-01-26T11:21:03.319Z,22.27
2018-01-26T11:22:05.835Z,22.90
2018-01-26T11:23:08.337Z,23.95
2018-01-26T11:24:10.975Z,23.30
2018-01-26T11:25:13.472Z,23.00
2018-01-26T11:26:15.990Z,22.98
2018-01-26T11:27:19.372Z,25.05
2018-01-26T11:28:21.872Z,26.15
2018-01-26T11:29:24.386Z,24.00
2018-01-26T11:30:26.887Z,24.65
2018-01-26T11:31:29.391Z,24.75
2018-01-26T11:32:31.894Z,23.33
2018-01-26T11:33:34.397Z,21.98
2018-01-26T11:34:36.882Z,22.83
2018-01-26T11:35:40.283Z,23.73
2018-01-26T11:36:42.836Z,22.45
2018-01-26T11:37:46.213Z,21.65
2018-01-26T11:38:48.823Z,22.50
2018-01-26T11:39:51.329Z,22.40
2018-01-26T11:40:54.869Z,22.48
2018-01-26T11:41:58.178Z,24.00
2018-01-26T11:43:00.820Z,23.30
2018-01-26T11:44:03.343Z,23.33
2018-01-26T11:45:05.838Z,24.12
2018-01-26T11:46:08.349Z,23.95
2018-01-26T11:47:10.858Z,25.20
2018-01-26T11:48:13.427Z,25.37
2018-01-26T11:49:15.937Z,25.02
2018-01-26T11:50:18.437Z,25.27
2018-01-26T11:51:20.947Z,25.20
2018-01-26T11:52:23.497Z,24.23
2018-01-26T11:53:26.257Z,25.17
2018-01-26T11:54:28.959Z,24.12
2018-01-26T11:55:31.467Z,24.02
2018-01-26T11:56:33.986Z,25.33
2018-01-26T11:57:36.499Z,23.10
2018-01-26T11:58:39.799Z,26.67
2018-01-26T11:59:42.283Z,23.00
2018-01-26T12:00:45.559Z,22.25
2018-01-26T12:01:48.115Z,23.75
2018-01-26T12:02:50.627Z,25.17
2018-01-26T12:03:53.136Z,23.95
2018-01-26T12:04:55.642Z,24.55
2018-01-26T12:05:58.137Z,26.30
2018-01-26T12:07:01.387Z,27.20
2018-01-26T12:08:03.910Z,27.02
2018-01-26T12:09:06.421Z,26.70
2018-01-26T12:10:08.935Z,28.17
2018-01-26T12:11:11.610Z,27.55
2018-01-26T12:12:14.114Z,29.00
2018-01-26T12:13:16.755Z,30.40
2018-01-26T12:14:19.284Z,27.90
2018-01-26T12:15:21.780Z,30.60
2018-01-26T12:16:25.048Z,30.90
2018-01-26T12:17:27.549Z,32.25
2018-01-26T12:18:30.824Z,33.08
2018-01-26T12:19:34.115Z,32.58
2018-01-26T12:20:37.378Z,32.15
2018-01-26T12:21:39.872Z,30.12
2018-01-26T12:22:43.144Z,29.73
2018-01-26T12:23:45.651Z,30.83
2018-01-26T12:24:48.188Z,30.52
2018-01-26T12:25:50.796Z,27.45
2018-01-26T12:26:53.287Z,26.60
2018-01-26T12:27:55.802Z,28.20
2018-01-26T12:28:59.650Z,27.08
2018-01-26T12:30:02.184Z,27.98
2018-01-26T12:31:04.677Z,26.27
2018-01-26T12:32:07.957Z,26.77
2018-01-26T12:33:11.577Z,27.08
2018-01-26T12:34:14.104Z,27.70
2018-01-26T12:35:16.715Z,27.70
2018-01-26T12:36:19.214Z,28.05
2018-01-26T12:38:35.665Z,27.35
2018-01-26T12:39:38.160Z,28.05
2018-01-26T12:40:41.950Z,28.48
2018-01-26T12:41:44.481Z,26.37
2018-01-26T12:42:46.996Z,26.65
2018-01-26T12:43:49.491Z,25.83
2018-01-26T12:44:51.984Z,26.65
2018-01-26T12:45:54.529Z,25.10
2018-01-26T12:46:57.834Z,24.15
2018-01-26T12:48:00.320Z,24.17
2018-01-26T12:49:02.911Z,25.62
2018-01-26T12:50:05.402Z,22.70
2018-01-26T12:51:07.895Z,21.45
2018-01-26T12:52:11.020Z,20.23
2018-01-26T12:53:14.125Z,21.25
2018-01-26T12:54:16.612Z,22.25
2018-01-26T12:55:19.096Z,22.70
2018-01-26T12:56:22.425Z,22.62
2018-01-26T12:57:24.955Z,22.25
2018-01-26T12:58:27.471Z,22.30
2018-01-26T12:59:29.955Z,22.62
2018-01-26T13:00:33.207Z,22.10
2018-01-26T13:01:35.688Z,20.55
2018-01-26T13:02:39.345Z,19.50
2018-01-26T13:03:41.869Z,22.02
2018-01-26T13:04:45.142Z,21.15
2018-01-26T13:05:47.660Z,22.02
2018-01-26T13:06:50.172Z,20.40
2018-01-26T13:07:52.787Z,20.70
2018-01-26T13:08:56.063Z,22.23
2018-01-26T13:09:58.582Z,20.08
2018-01-26T13:11:01.099Z,20.37
2018-01-26T13:12:03.594Z,23.10
2018-01-26T13:13:06.868Z,23.75
2018-01-26T13:14:09.390Z,22.02
2018-01-26T13:15:12.627Z,21.42
2018-01-26T13:16:15.116Z,22.98
2018-01-26T13:17:18.360Z,23.25
2018-01-26T13:18:20.853Z,22.17
2018-01-26T13:19:23.349Z,22.45
2018-01-26T13:20:25.850Z,22.13
2018-01-26T13:21:28.337Z,23.62
2018-01-26T13:22:30.948Z,23.10
2018-01-26T13:23:33.952Z,22.60
2018-01-26T13:24:36.469Z,24.12
2018-01-26T13:25:38.975Z,20.73
2018-01-26T13:26:42.237Z,22.23
2018-01-26T13:27:44.763Z,23.10
2018-01-26T13:28:47.256Z,22.80
2018-01-26T13:29:49.752Z,22.33
2018-01-26T13:30:52.262Z,21.52
2018-01-26T13:31:54.755Z,23.08
2018-01-26T13:32:57.243Z,21.40
2018-01-26T13:33:59.728Z,22.27
2018-01-26T13:35:02.230Z,23.52
2018-01-26T13:36:04.735Z,20.98
2018-01-26T13:37:07.233Z,21.87
2018-01-26T13:38:10.780Z,22.35
2018-01-26T13:39:14.241Z,21.87
2018-01-26T13:40:16.727Z,22.60
2018-01-26T13:41:19.240Z,22.20
2018-01-26T13:42:21.757Z,23.05
2018-01-26T13:43:24.322Z,23.42
2018-01-26T13:44:26.802Z,21.62
2018-01-26T13:45:30.084Z,22.30
2018-01-26T13:46:32.611Z,21.85
2018-01-26T13:47:35.095Z,23.20
2018-01-26T13:48:37.590Z,23.75
2018-01-26T13:49:40.085Z,22.37
2018-01-26T13:50:43.333Z,23.05
2018-01-26T13:51:45.855Z,22.42
2018-01-26T13:52:49.118Z,23.25
2018-01-26T13:53:51.585Z,22.70
2018-01-26T13:54:54.075Z,23.20
2018-01-26T13:55:57.326Z,23.00